sensor_id;sensor_type;location;lat;lon;timestamp;P1;durP1;ratioP1;P2;durP2;ratioP2
20065;SDS011;10193;48.884;9.182;2023-02-15T00:01:38;11.33;;;10.07;;
20065;SDS011;10193;48.884;9.182;2023-02-15T00:04:06;11.63;;;10.13;;
20065;SDS011;10193;48.884;9.182;2023-02-15T00:06:33;12.83;;;10.67;;
20065;SDS011;10193;48.884;9.182;2023-02-15T00:09:00;11.90;;;9.87;;
20065;SDS011;10193;48.884;9.182;2023-02-15T00:11:28;12.77;;;10.90;;
20065;SDS011;10193;48.884;9.182;2023-02-15T00:14:08;12.00;;;10.20;;
20065;SDS011;10193;48.884;9.182;2023-02-15T00:16:37;12.10;;;9.90;;
20065;SDS011;10193;48.884;9.182;2023-02-15T00:19:05;13.37;;;10.73;;
20065;SDS011;10193;48.884;9.182;2023-02-15T00:21:33;15.57;;;11.17;;
20065;SDS011;10193;48.884;9.182;2023-02-15T00:24:02;11.50;;;10.30;;
20065;SDS011;10193;48.884;9.182;2023-02-15T00:26:30;14.23;;;11.47;;
20065;SDS011;10193;48.884;9.182;2023-02-15T00:28:57;12.50;;;10.63;;
20065;SDS011;10193;48.884;9.182;2023-02-15T00:31:25;13.97;;;11.47;;
20065;SDS011;10193;48.884;9.182;2023-02-15T00:33:52;13.73;;;11.37;;
20065;SDS011;10193;48.884;9.182;2023-02-15T00:36:20;15.23;;;11.60;;
20065;SDS011;10193;48.884;9.182;2023-02-15T00:38:47;13.87;;;11.63;;
20065;SDS011;10193;48.884;9.182;2023-02-15T00:41:14;13.20;;;11.47;;
20065;SDS011;10193;48.884;9.182;2023-02-15T00:43:40;13.87;;;11.27;;
20065;SDS011;10193;48.884;9.182;2023-02-15T00:46:07;13.33;;;11.10;;
20065;SDS011;10193;48.884;9.182;2023-02-15T00:48:33;13.80;;;11.13;;
20065;SDS011;10193;48.884;9.182;2023-02-15T00:51:00;12.20;;;10.70;;
20065;SDS011;10193;48.884;9.182;2023-02-15T00:53:28;13.07;;;10.77;;
20065;SDS011;10193;48.884;9.182;2023-02-15T00:55:55;13.87;;;10.93;;
20065;SDS011;10193;48.884;9.182;2023-02-15T00:58:22;12.20;;;10.33;;
20065;SDS011;10193;48.884;9.182;2023-02-15T01:00:49;12.47;;;10.67;;
20065;SDS011;10193;48.884;9.182;2023-02-15T01:03:16;13.27;;;10.60;;
20065;SDS011;10193;48.884;9.182;2023-02-15T01:05:44;13.87;;;11.57;;
20065;SDS011;10193;48.884;9.182;2023-02-15T01:08:11;12.30;;;10.43;;
20065;SDS011;10193;48.884;9.182;2023-02-15T01:10:39;13.10;;;10.97;;
20065;SDS011;10193;48.884;9.182;2023-02-15T01:13:05;13.20;;;11.23;;
20065;SDS011;10193;48.884;9.182;2023-02-15T01:15:33;11.67;;;10.47;;
20065;SDS011;10193;48.884;9.182;2023-02-15T01:18:01;12.57;;;11.00;;
20065;SDS011;10193;48.884;9.182;2023-02-15T01:20:28;12.83;;;10.90;;
20065;SDS011;10193;48.884;9.182;2023-02-15T01:22:56;12.83;;;10.87;;
20065;SDS011;10193;48.884;9.182;2023-02-15T01:25:23;13.90;;;11.40;;
20065;SDS011;10193;48.884;9.182;2023-02-15T01:27:52;13.47;;;11.27;;
20065;SDS011;10193;48.884;9.182;2023-02-15T01:30:18;12.13;;;10.63;;
20065;SDS011;10193;48.884;9.182;2023-02-15T01:32:45;15.27;;;11.70;;
20065;SDS011;10193;48.884;9.182;2023-02-15T01:35:12;14.03;;;11.50;;
20065;SDS011;10193;48.884;9.182;2023-02-15T01:37:38;12.83;;;11.43;;
20065;SDS011;10193;48.884;9.182;2023-02-15T01:40:06;14.47;;;12.23;;
20065;SDS011;10193;48.884;9.182;2023-02-15T01:42:34;13.60;;;11.27;;
20065;SDS011;10193;48.884;9.182;2023-02-15T01:45:03;13.77;;;11.30;;
20065;SDS011;10193;48.884;9.182;2023-02-15T01:47:32;15.53;;;11.70;;
20065;SDS011;10193;48.884;9.182;2023-02-15T01:50:12;26.47;;;12.77;;
20065;SDS011;10193;48.884;9.182;2023-02-15T01:52:42;23.97;;;11.47;;
20065;SDS011;10193;48.884;9.182;2023-02-15T01:55:14;26.40;;;11.70;;
20065;SDS011;10193;48.884;9.182;2023-02-15T01:57:42;18.37;;;10.87;;
20065;SDS011;10193;48.884;9.182;2023-02-15T02:00:13;38.90;;;10.50;;
20065;SDS011;10193;48.884;9.182;2023-02-15T02:02:42;24.07;;;10.80;;
20065;SDS011;10193;48.884;9.182;2023-02-15T02:05:10;18.67;;;10.57;;
20065;SDS011;10193;48.884;9.182;2023-02-15T02:07:37;35.47;;;10.80;;
20065;SDS011;10193;48.884;9.182;2023-02-15T02:10:09;31.63;;;10.47;;
20065;SDS011;10193;48.884;9.182;2023-02-15T02:12:37;45.60;;;10.50;;
20065;SDS011;10193;48.884;9.182;2023-02-15T02:15:08;22.33;;;10.63;;
20065;SDS011;10193;48.884;9.182;2023-02-15T02:17:40;15.27;;;10.10;;
20065;SDS011;10193;48.884;9.182;2023-02-15T02:20:18;12.07;;;10.10;;
20065;SDS011;10193;48.884;9.182;2023-02-15T02:23:08;16.43;;;9.40;;
20065;SDS011;10193;48.884;9.182;2023-02-15T02:26:03;33.20;;;9.47;;
20065;SDS011;10193;48.884;9.182;2023-02-15T02:32:07;27.00;;;8.60;;
20065;SDS011;10193;48.884;9.182;2023-02-15T02:35:05;16.00;;;8.30;;
20065;SDS011;10193;48.884;9.182;2023-02-15T02:37:39;13.40;;;7.80;;
20065;SDS011;10193;48.884;9.182;2023-02-15T02:40:12;14.63;;;8.43;;
20065;SDS011;10193;48.884;9.182;2023-02-15T02:42:47;21.50;;;8.20;;
20065;SDS011;10193;48.884;9.182;2023-02-15T02:45:22;21.87;;;8.57;;
20065;SDS011;10193;48.884;9.182;2023-02-15T02:47:52;18.73;;;8.50;;
20065;SDS011;10193;48.884;9.182;2023-02-15T02:50:25;30.00;;;8.20;;
20065;SDS011;10193;48.884;9.182;2023-02-15T02:52:54;35.40;;;8.37;;
20065;SDS011;10193;48.884;9.182;2023-02-15T02:55:23;25.20;;;8.80;;
20065;SDS011;10193;48.884;9.182;2023-02-15T02:57:54;29.97;;;8.37;;
20065;SDS011;10193;48.884;9.182;2023-02-15T03:00:25;27.63;;;8.70;;
20065;SDS011;10193;48.884;9.182;2023-02-15T03:02:54;32.47;;;8.27;;
20065;SDS011;10193;48.884;9.182;2023-02-15T03:05:31;26.20;;;8.50;;
20065;SDS011;10193;48.884;9.182;2023-02-15T03:08:00;11.03;;;8.07;;
20065;SDS011;10193;48.884;9.182;2023-02-15T03:10:31;18.40;;;7.73;;
20065;SDS011;10193;48.884;9.182;2023-02-15T03:13:00;23.83;;;7.93;;
20065;SDS011;10193;48.884;9.182;2023-02-15T03:15:28;29.50;;;8.33;;
20065;SDS011;10193;48.884;9.182;2023-02-15T03:18:17;29.20;;;8.07;;
20065;SDS011;10193;48.884;9.182;2023-02-15T03:20:49;12.50;;;7.77;;
20065;SDS011;10193;48.884;9.182;2023-02-15T03:23:18;16.03;;;8.17;;
20065;SDS011;10193;48.884;9.182;2023-02-15T03:25:50;21.23;;;8.00;;
20065;SDS011;10193;48.884;9.182;2023-02-15T03:28:23;23.30;;;7.70;;
20065;SDS011;10193;48.884;9.182;2023-02-15T03:30:55;22.93;;;7.63;;
20065;SDS011;10193;48.884;9.182;2023-02-15T03:33:24;17.87;;;8.13;;
20065;SDS011;10193;48.884;9.182;2023-02-15T03:35:57;18.83;;;8.50;;
20065;SDS011;10193;48.884;9.182;2023-02-15T03:38:31;19.43;;;7.80;;
20065;SDS011;10193;48.884;9.182;2023-02-15T03:41:02;13.63;;;7.50;;
20065;SDS011;10193;48.884;9.182;2023-02-15T03:43:38;8.87;;;7.40;;
20065;SDS011;10193;48.884;9.182;2023-02-15T03:46:12;16.97;;;7.60;;
20065;SDS011;10193;48.884;9.182;2023-02-15T03:48:41;12.43;;;7.93;;
20065;SDS011;10193;48.884;9.182;2023-02-15T03:51:14;13.83;;;8.40;;
20065;SDS011;10193;48.884;9.182;2023-02-15T03:54:03;10.97;;;7.50;;
20065;SDS011;10193;48.884;9.182;2023-02-15T03:56:33;9.80;;;7.97;;
20065;SDS011;10193;48.884;9.182;2023-02-15T03:59:02;12.37;;;8.03;;
20065;SDS011;10193;48.884;9.182;2023-02-15T04:01:49;10.97;;;7.67;;
20065;SDS011;10193;48.884;9.182;2023-02-15T04:04:27;16.97;;;7.87;;
20065;SDS011;10193;48.884;9.182;2023-02-15T04:06:59;11.63;;;7.90;;
20065;SDS011;10193;48.884;9.182;2023-02-15T04:09:26;12.47;;;7.17;;
20065;SDS011;10193;48.884;9.182;2023-02-15T04:12:10;11.87;;;7.63;;
20065;SDS011;10193;48.884;9.182;2023-02-15T04:14:36;9.27;;;7.93;;
20065;SDS011;10193;48.884;9.182;2023-02-15T04:17:21;10.20;;;8.30;;
20065;SDS011;10193;48.884;9.182;2023-02-15T04:19:47;8.93;;;7.53;;
20065;SDS011;10193;48.884;9.182;2023-02-15T04:22:33;9.27;;;8.13;;
20065;SDS011;10193;48.884;9.182;2023-02-15T04:25:18;8.43;;;7.13;;
20065;SDS011;10193;48.884;9.182;2023-02-15T04:27:45;12.37;;;7.77;;
20065;SDS011;10193;48.884;9.182;2023-02-15T04:30:14;9.77;;;7.17;;
20065;SDS011;10193;48.884;9.182;2023-02-15T04:32:44;8.40;;;6.90;;
20065;SDS011;10193;48.884;9.182;2023-02-15T04:35:10;12.33;;;7.20;;
20065;SDS011;10193;48.884;9.182;2023-02-15T04:37:39;8.33;;;7.43;;
20065;SDS011;10193;48.884;9.182;2023-02-15T04:40:07;12.93;;;7.77;;
20065;SDS011;10193;48.884;9.182;2023-02-15T04:42:35;11.77;;;7.10;;
20065;SDS011;10193;48.884;9.182;2023-02-15T04:45:01;7.70;;;6.90;;
20065;SDS011;10193;48.884;9.182;2023-02-15T04:47:28;7.87;;;6.80;;
20065;SDS011;10193;48.884;9.182;2023-02-15T04:49:55;8.87;;;6.97;;
20065;SDS011;10193;48.884;9.182;2023-02-15T04:52:22;8.23;;;6.87;;
20065;SDS011;10193;48.884;9.182;2023-02-15T04:54:50;8.00;;;6.97;;
20065;SDS011;10193;48.884;9.182;2023-02-15T04:57:17;8.23;;;6.80;;
20065;SDS011;10193;48.884;9.182;2023-02-15T04:59:43;8.53;;;7.03;;
20065;SDS011;10193;48.884;9.182;2023-02-15T05:02:10;8.17;;;7.00;;
20065;SDS011;10193;48.884;9.182;2023-02-15T05:04:37;9.00;;;6.97;;
20065;SDS011;10193;48.884;9.182;2023-02-15T05:07:03;7.83;;;7.00;;
20065;SDS011;10193;48.884;9.182;2023-02-15T05:09:30;8.63;;;7.33;;
20065;SDS011;10193;48.884;9.182;2023-02-15T05:11:58;9.37;;;7.53;;
20065;SDS011;10193;48.884;9.182;2023-02-15T05:14:24;11.97;;;7.53;;
20065;SDS011;10193;48.884;9.182;2023-02-15T05:16:51;11.27;;;7.80;;
20065;SDS011;10193;48.884;9.182;2023-02-15T05:19:18;11.27;;;8.43;;
20065;SDS011;10193;48.884;9.182;2023-02-15T05:21:45;11.03;;;7.70;;
20065;SDS011;10193;48.884;9.182;2023-02-15T05:24:12;13.43;;;7.53;;
20065;SDS011;10193;48.884;9.182;2023-02-15T05:26:58;13.53;;;7.83;;
20065;SDS011;10193;48.884;9.182;2023-02-15T05:29:38;10.17;;;7.73;;
20065;SDS011;10193;48.884;9.182;2023-02-15T05:32:05;11.07;;;7.63;;
20065;SDS011;10193;48.884;9.182;2023-02-15T05:34:32;14.20;;;8.07;;
20065;SDS011;10193;48.884;9.182;2023-02-15T05:36:58;9.10;;;7.23;;
20065;SDS011;10193;48.884;9.182;2023-02-15T05:39:25;8.77;;;6.93;;
20065;SDS011;10193;48.884;9.182;2023-02-15T05:41:51;8.30;;;7.07;;
20065;SDS011;10193;48.884;9.182;2023-02-15T05:44:19;8.60;;;7.20;;
20065;SDS011;10193;48.884;9.182;2023-02-15T05:46:46;9.17;;;7.43;;
20065;SDS011;10193;48.884;9.182;2023-02-15T05:49:13;8.67;;;7.27;;
20065;SDS011;10193;48.884;9.182;2023-02-15T05:51:39;14.27;;;8.73;;
20065;SDS011;10193;48.884;9.182;2023-02-15T05:54:06;11.23;;;7.90;;
20065;SDS011;10193;48.884;9.182;2023-02-15T05:56:32;14.30;;;8.27;;
20065;SDS011;10193;48.884;9.182;2023-02-15T05:58:59;12.57;;;8.30;;
20065;SDS011;10193;48.884;9.182;2023-02-15T06:01:27;10.47;;;8.93;;
20065;SDS011;10193;48.884;9.182;2023-02-15T06:03:54;12.77;;;9.13;;
20065;SDS011;10193;48.884;9.182;2023-02-15T06:06:21;12.07;;;8.57;;
20065;SDS011;10193;48.884;9.182;2023-02-15T06:08:48;24.27;;;8.83;;
20065;SDS011;10193;48.884;9.182;2023-02-15T06:11:14;18.07;;;8.43;;
20065;SDS011;10193;48.884;9.182;2023-02-15T06:13:41;18.90;;;10.23;;
20065;SDS011;10193;48.884;9.182;2023-02-15T06:16:08;16.00;;;9.70;;
20065;SDS011;10193;48.884;9.182;2023-02-15T06:18:36;14.50;;;9.17;;
20065;SDS011;10193;48.884;9.182;2023-02-15T06:21:03;12.67;;;8.80;;
20065;SDS011;10193;48.884;9.182;2023-02-15T06:23:29;16.27;;;9.17;;
20065;SDS011;10193;48.884;9.182;2023-02-15T06:25:56;20.37;;;8.83;;
20065;SDS011;10193;48.884;9.182;2023-02-15T06:28:23;12.83;;;8.20;;
20065;SDS011;10193;48.884;9.182;2023-02-15T06:30:50;10.03;;;7.93;;
20065;SDS011;10193;48.884;9.182;2023-02-15T06:33:18;10.87;;;8.10;;
20065;SDS011;10193;48.884;9.182;2023-02-15T06:35:46;10.73;;;8.37;;
20065;SDS011;10193;48.884;9.182;2023-02-15T06:38:12;10.70;;;8.07;;
20065;SDS011;10193;48.884;9.182;2023-02-15T06:40:39;10.47;;;8.33;;
20065;SDS011;10193;48.884;9.182;2023-02-15T06:43:06;10.03;;;8.20;;
20065;SDS011;10193;48.884;9.182;2023-02-15T06:45:32;10.00;;;8.10;;
20065;SDS011;10193;48.884;9.182;2023-02-15T06:47:59;10.53;;;8.73;;
20065;SDS011;10193;48.884;9.182;2023-02-15T06:50:26;10.87;;;8.67;;
20065;SDS011;10193;48.884;9.182;2023-02-15T06:52:56;10.63;;;8.43;;
20065;SDS011;10193;48.884;9.182;2023-02-15T06:55:23;10.33;;;8.57;;
20065;SDS011;10193;48.884;9.182;2023-02-15T06:57:50;10.67;;;9.10;;
20065;SDS011;10193;48.884;9.182;2023-02-15T07:00:17;13.27;;;9.43;;
20065;SDS011;10193;48.884;9.182;2023-02-15T07:02:44;12.50;;;9.23;;
20065;SDS011;10193;48.884;9.182;2023-02-15T07:05:11;16.00;;;9.23;;
20065;SDS011;10193;48.884;9.182;2023-02-15T07:07:38;15.53;;;9.40;;
20065;SDS011;10193;48.884;9.182;2023-02-15T07:10:06;11.90;;;9.07;;
20065;SDS011;10193;48.884;9.182;2023-02-15T07:12:33;12.47;;;8.87;;
20065;SDS011;10193;48.884;9.182;2023-02-15T07:15:09;13.60;;;9.37;;
20065;SDS011;10193;48.884;9.182;2023-02-15T07:17:37;12.63;;;9.33;;
20065;SDS011;10193;48.884;9.182;2023-02-15T07:20:05;14.70;;;9.23;;
20065;SDS011;10193;48.884;9.182;2023-02-15T07:22:33;15.40;;;9.03;;
20065;SDS011;10193;48.884;9.182;2023-02-15T07:25:01;13.80;;;8.90;;
20065;SDS011;10193;48.884;9.182;2023-02-15T07:27:29;11.80;;;8.30;;
20065;SDS011;10193;48.884;9.182;2023-02-15T07:29:57;10.47;;;8.73;;
20065;SDS011;10193;48.884;9.182;2023-02-15T07:32:23;11.23;;;8.97;;
20065;SDS011;10193;48.884;9.182;2023-02-15T07:34:52;11.20;;;8.60;;
20065;SDS011;10193;48.884;9.182;2023-02-15T07:37:19;18.17;;;9.23;;
20065;SDS011;10193;48.884;9.182;2023-02-15T07:39:46;13.20;;;10.00;;
20065;SDS011;10193;48.884;9.182;2023-02-15T07:42:12;11.50;;;9.00;;
20065;SDS011;10193;48.884;9.182;2023-02-15T07:44:40;14.27;;;9.00;;
20065;SDS011;10193;48.884;9.182;2023-02-15T07:47:07;13.53;;;9.10;;
20065;SDS011;10193;48.884;9.182;2023-02-15T07:49:33;16.73;;;8.50;;
20065;SDS011;10193;48.884;9.182;2023-02-15T07:52:01;15.27;;;8.60;;
20065;SDS011;10193;48.884;9.182;2023-02-15T07:54:28;13.83;;;8.63;;
20065;SDS011;10193;48.884;9.182;2023-02-15T07:56:54;11.63;;;9.07;;
20065;SDS011;10193;48.884;9.182;2023-02-15T07:59:21;16.97;;;9.07;;
20065;SDS011;10193;48.884;9.182;2023-02-15T08:01:50;11.57;;;8.63;;
20065;SDS011;10193;48.884;9.182;2023-02-15T08:04:19;12.83;;;9.40;;
20065;SDS011;10193;48.884;9.182;2023-02-15T08:06:45;10.93;;;8.70;;
20065;SDS011;10193;48.884;9.182;2023-02-15T08:09:12;13.53;;;8.53;;
20065;SDS011;10193;48.884;9.182;2023-02-15T08:11:38;14.97;;;8.93;;
20065;SDS011;10193;48.884;9.182;2023-02-15T08:14:06;10.73;;;9.07;;
20065;SDS011;10193;48.884;9.182;2023-02-15T08:16:34;11.40;;;9.50;;
20065;SDS011;10193;48.884;9.182;2023-02-15T08:19:05;12.23;;;9.27;;
20065;SDS011;10193;48.884;9.182;2023-02-15T08:21:33;10.53;;;8.83;;
20065;SDS011;10193;48.884;9.182;2023-02-15T08:24:01;12.70;;;10.07;;
20065;SDS011;10193;48.884;9.182;2023-02-15T08:26:29;12.67;;;9.93;;
20065;SDS011;10193;48.884;9.182;2023-02-15T08:28:56;12.80;;;10.33;;
20065;SDS011;10193;48.884;9.182;2023-02-15T08:31:23;11.87;;;9.50;;
20065;SDS011;10193;48.884;9.182;2023-02-15T08:33:51;13.87;;;10.93;;
20065;SDS011;10193;48.884;9.182;2023-02-15T08:36:21;12.80;;;10.77;;
20065;SDS011;10193;48.884;9.182;2023-02-15T08:38:49;13.00;;;10.73;;
20065;SDS011;10193;48.884;9.182;2023-02-15T08:41:16;12.70;;;10.53;;
20065;SDS011;10193;48.884;9.182;2023-02-15T08:43:45;14.37;;;11.60;;
20065;SDS011;10193;48.884;9.182;2023-02-15T08:46:13;13.47;;;10.37;;
20065;SDS011;10193;48.884;9.182;2023-02-15T08:48:41;13.27;;;10.87;;
20065;SDS011;10193;48.884;9.182;2023-02-15T08:51:10;12.63;;;10.30;;
20065;SDS011;10193;48.884;9.182;2023-02-15T08:53:40;12.37;;;10.47;;
20065;SDS011;10193;48.884;9.182;2023-02-15T08:56:07;14.70;;;10.60;;
20065;SDS011;10193;48.884;9.182;2023-02-15T08:58:34;11.97;;;10.67;;
20065;SDS011;10193;48.884;9.182;2023-02-15T09:01:07;12.17;;;10.63;;
20065;SDS011;10193;48.884;9.182;2023-02-15T09:03:34;13.23;;;10.33;;
20065;SDS011;10193;48.884;9.182;2023-02-15T09:06:01;12.87;;;10.83;;
20065;SDS011;10193;48.884;9.182;2023-02-15T09:08:28;12.70;;;10.67;;
20065;SDS011;10193;48.884;9.182;2023-02-15T09:11:05;12.97;;;10.90;;
20065;SDS011;10193;48.884;9.182;2023-02-15T09:13:33;11.77;;;10.13;;
20065;SDS011;10193;48.884;9.182;2023-02-15T09:16:00;12.73;;;10.33;;
20065;SDS011;10193;48.884;9.182;2023-02-15T09:18:28;13.23;;;10.37;;
20065;SDS011;10193;48.884;9.182;2023-02-15T09:20:56;10.93;;;9.67;;
20065;SDS011;10193;48.884;9.182;2023-02-15T09:23:22;14.50;;;12.03;;
20065;SDS011;10193;48.884;9.182;2023-02-15T09:25:49;14.70;;;11.83;;
20065;SDS011;10193;48.884;9.182;2023-02-15T09:28:17;14.73;;;12.20;;
20065;SDS011;10193;48.884;9.182;2023-02-15T09:30:44;13.17;;;11.77;;
20065;SDS011;10193;48.884;9.182;2023-02-15T09:33:10;14.83;;;13.00;;
20065;SDS011;10193;48.884;9.182;2023-02-15T09:35:37;13.60;;;12.10;;
20065;SDS011;10193;48.884;9.182;2023-02-15T09:38:03;13.23;;;11.83;;
20065;SDS011;10193;48.884;9.182;2023-02-15T09:40:30;12.77;;;11.47;;
20065;SDS011;10193;48.884;9.182;2023-02-15T09:43:10;12.30;;;10.80;;
20065;SDS011;10193;48.884;9.182;2023-02-15T09:45:56;13.40;;;11.53;;
20065;SDS011;10193;48.884;9.182;2023-02-15T09:48:40;12.80;;;11.27;;
20065;SDS011;10193;48.884;9.182;2023-02-15T09:51:22;11.97;;;10.77;;
20065;SDS011;10193;48.884;9.182;2023-02-15T09:54:06;12.60;;;11.00;;
20065;SDS011;10193;48.884;9.182;2023-02-15T09:56:42;13.17;;;11.23;;
20065;SDS011;10193;48.884;9.182;2023-02-15T09:59:17;15.43;;;11.63;;
20065;SDS011;10193;48.884;9.182;2023-02-15T10:01:54;15.00;;;11.93;;
20065;SDS011;10193;48.884;9.182;2023-02-15T10:04:32;14.60;;;11.90;;
20065;SDS011;10193;48.884;9.182;2023-02-15T10:07:11;13.50;;;11.63;;
20065;SDS011;10193;48.884;9.182;2023-02-15T10:09:49;12.83;;;11.37;;
20065;SDS011;10193;48.884;9.182;2023-02-15T10:12:32;13.00;;;11.53;;
20065;SDS011;10193;48.884;9.182;2023-02-15T10:15:21;13.03;;;11.63;;
20065;SDS011;10193;48.884;9.182;2023-02-15T10:17:59;13.13;;;11.73;;
20065;SDS011;10193;48.884;9.182;2023-02-15T10:20:37;13.20;;;11.10;;
20065;SDS011;10193;48.884;9.182;2023-02-15T10:23:18;13.13;;;11.27;;
20065;SDS011;10193;48.884;9.182;2023-02-15T10:26:00;13.20;;;11.77;;
20065;SDS011;10193;48.884;9.182;2023-02-15T10:28:38;14.80;;;12.37;;
20065;SDS011;10193;48.884;9.182;2023-02-15T10:31:14;14.17;;;12.67;;
20065;SDS011;10193;48.884;9.182;2023-02-15T10:33:48;13.77;;;12.37;;
20065;SDS011;10193;48.884;9.182;2023-02-15T10:36:29;14.33;;;12.50;;
20065;SDS011;10193;48.884;9.182;2023-02-15T10:39:09;14.17;;;12.67;;
20065;SDS011;10193;48.884;9.182;2023-02-15T10:41:44;14.40;;;12.70;;
20065;SDS011;10193;48.884;9.182;2023-02-15T10:44:25;13.93;;;12.37;;
20065;SDS011;10193;48.884;9.182;2023-02-15T10:47:06;14.00;;;12.50;;
20065;SDS011;10193;48.884;9.182;2023-02-15T10:49:53;14.17;;;12.67;;
20065;SDS011;10193;48.884;9.182;2023-02-15T10:52:34;14.03;;;12.53;;
20065;SDS011;10193;48.884;9.182;2023-02-15T10:55:14;13.43;;;12.00;;
20065;SDS011;10193;48.884;9.182;2023-02-15T10:57:50;13.83;;;12.43;;
20065;SDS011;10193;48.884;9.182;2023-02-15T11:00:25;13.83;;;12.37;;
20065;SDS011;10193;48.884;9.182;2023-02-15T11:03:05;13.67;;;12.20;;
20065;SDS011;10193;48.884;9.182;2023-02-15T11:05:52;13.67;;;11.73;;
20065;SDS011;10193;48.884;9.182;2023-02-15T11:08:27;13.30;;;11.90;;
20065;SDS011;10193;48.884;9.182;2023-02-15T11:10:58;14.40;;;12.90;;
20065;SDS011;10193;48.884;9.182;2023-02-15T11:13:29;15.53;;;13.83;;
20065;SDS011;10193;48.884;9.182;2023-02-15T11:16:00;15.90;;;14.17;;
20065;SDS011;10193;48.884;9.182;2023-02-15T11:18:32;16.93;;;13.67;;
20065;SDS011;10193;48.884;9.182;2023-02-15T11:21:04;16.03;;;14.00;;
20065;SDS011;10193;48.884;9.182;2023-02-15T11:23:39;16.17;;;14.37;;
20065;SDS011;10193;48.884;9.182;2023-02-15T11:26:11;15.67;;;13.70;;
20065;SDS011;10193;48.884;9.182;2023-02-15T11:28:42;17.53;;;14.47;;
20065;SDS011;10193;48.884;9.182;2023-02-15T11:31:14;14.60;;;13.10;;
20065;SDS011;10193;48.884;9.182;2023-02-15T11:33:45;16.77;;;13.60;;
20065;SDS011;10193;48.884;9.182;2023-02-15T11:36:17;15.33;;;13.37;;
20065;SDS011;10193;48.884;9.182;2023-02-15T11:38:49;16.70;;;14.80;;
20065;SDS011;10193;48.884;9.182;2023-02-15T11:41:21;17.03;;;15.07;;
20065;SDS011;10193;48.884;9.182;2023-02-15T11:43:53;19.57;;;15.43;;
20065;SDS011;10193;48.884;9.182;2023-02-15T11:46:23;17.17;;;15.33;;
20065;SDS011;10193;48.884;9.182;2023-02-15T11:48:51;17.60;;;15.40;;
20065;SDS011;10193;48.884;9.182;2023-02-15T11:51:18;16.43;;;14.60;;
20065;SDS011;10193;48.884;9.182;2023-02-15T11:53:47;15.93;;;14.27;;
20065;SDS011;10193;48.884;9.182;2023-02-15T11:56:15;16.70;;;15.00;;
20065;SDS011;10193;48.884;9.182;2023-02-15T11:58:44;18.23;;;15.63;;
20065;SDS011;10193;48.884;9.182;2023-02-15T12:01:16;15.70;;;14.00;;
20065;SDS011;10193;48.884;9.182;2023-02-15T12:03:48;20.43;;;15.03;;
20065;SDS011;10193;48.884;9.182;2023-02-15T12:06:23;16.57;;;14.87;;
20065;SDS011;10193;48.884;9.182;2023-02-15T12:08:53;17.27;;;14.97;;
20065;SDS011;10193;48.884;9.182;2023-02-15T12:11:27;17.13;;;15.17;;
20065;SDS011;10193;48.884;9.182;2023-02-15T12:13:59;17.33;;;15.55;;
20065;SDS011;10193;48.884;9.182;2023-02-15T12:16:27;17.37;;;15.57;;
20065;SDS011;10193;48.884;9.182;2023-02-15T12:18:57;16.93;;;15.10;;
20065;SDS011;10193;48.884;9.182;2023-02-15T12:21:27;16.93;;;15.13;;
20065;SDS011;10193;48.884;9.182;2023-02-15T12:23:57;18.63;;;14.80;;
20065;SDS011;10193;48.884;9.182;2023-02-15T12:26:27;16.70;;;15.00;;
20065;SDS011;10193;48.884;9.182;2023-02-15T12:28:55;16.40;;;14.70;;
20065;SDS011;10193;48.884;9.182;2023-02-15T12:31:27;16.63;;;13.97;;
20065;SDS011;10193;48.884;9.182;2023-02-15T12:33:59;16.50;;;14.65;;
20065;SDS011;10193;48.884;9.182;2023-02-15T12:36:29;17.60;;;15.00;;
20065;SDS011;10193;48.884;9.182;2023-02-15T12:39:05;16.87;;;15.07;;
20065;SDS011;10193;48.884;9.182;2023-02-15T12:41:45;17.65;;;15.85;;
20065;SDS011;10193;48.884;9.182;2023-02-15T12:44:19;16.90;;;14.82;;
20065;SDS011;10193;48.884;9.182;2023-02-15T12:46:55;16.92;;;15.13;;
20065;SDS011;10193;48.884;9.182;2023-02-15T12:49:25;16.67;;;14.93;;
20065;SDS011;10193;48.884;9.182;2023-02-15T12:51:53;16.45;;;14.68;;
20065;SDS011;10193;48.884;9.182;2023-02-15T12:57:13;15.70;;;14.10;;
20065;SDS011;10193;48.884;9.182;2023-02-15T12:59:52;16.60;;;14.90;;
20065;SDS011;10193;48.884;9.182;2023-02-15T13:02:21;16.35;;;14.65;;
20065;SDS011;10193;48.884;9.182;2023-02-15T13:04:54;16.95;;;15.35;;
20065;SDS011;10193;48.884;9.182;2023-02-15T13:07:23;16.20;;;14.60;;
20065;SDS011;10193;48.884;9.182;2023-02-15T13:09:51;16.33;;;14.50;;
20065;SDS011;10193;48.884;9.182;2023-02-15T13:12:20;16.40;;;14.70;;
20065;SDS011;10193;48.884;9.182;2023-02-15T13:14:48;16.27;;;14.68;;
20065;SDS011;10193;48.884;9.182;2023-02-15T13:17:17;16.23;;;14.55;;
20065;SDS011;10193;48.884;9.182;2023-02-15T13:19:49;16.10;;;14.50;;
20065;SDS011;10193;48.884;9.182;2023-02-15T13:22:21;16.08;;;13.82;;
20065;SDS011;10193;48.884;9.182;2023-02-15T13:24:53;14.57;;;13.07;;
20065;SDS011;10193;48.884;9.182;2023-02-15T13:27:23;15.18;;;13.55;;
20065;SDS011;10193;48.884;9.182;2023-02-15T13:29:55;15.65;;;13.80;;
20065;SDS011;10193;48.884;9.182;2023-02-15T13:32:25;15.15;;;13.48;;
20065;SDS011;10193;48.884;9.182;2023-02-15T13:34:56;14.80;;;13.13;;
20065;SDS011;10193;48.884;9.182;2023-02-15T13:37:30;15.50;;;13.90;;
20065;SDS011;10193;48.884;9.182;2023-02-15T13:40:09;14.38;;;12.90;;
20065;SDS011;10193;48.884;9.182;2023-02-15T13:42:41;15.45;;;13.73;;
20065;SDS011;10193;48.884;9.182;2023-02-15T13:45:20;14.57;;;13.05;;
20065;SDS011;10193;48.884;9.182;2023-02-15T13:48:00;14.07;;;12.57;;
20065;SDS011;10193;48.884;9.182;2023-02-15T13:50:36;13.65;;;12.20;;
20065;SDS011;10193;48.884;9.182;2023-02-15T13:53:22;14.70;;;13.07;;
20065;SDS011;10193;48.884;9.182;2023-02-15T13:56:00;13.68;;;12.30;;
20065;SDS011;10193;48.884;9.182;2023-02-15T13:58:38;14.35;;;12.85;;
20065;SDS011;10193;48.884;9.182;2023-02-15T14:01:22;13.35;;;12.05;;
20065;SDS011;10193;48.884;9.182;2023-02-15T14:04:02;14.05;;;12.65;;
20065;SDS011;10193;48.884;9.182;2023-02-15T14:06:46;14.00;;;12.50;;
20065;SDS011;10193;48.884;9.182;2023-02-15T14:09:23;13.93;;;12.52;;
20065;SDS011;10193;48.884;9.182;2023-02-15T14:12:02;14.82;;;12.63;;
20065;SDS011;10193;48.884;9.182;2023-02-15T14:15:01;13.77;;;12.38;;
20065;SDS011;10193;48.884;9.182;2023-02-15T14:17:47;14.90;;;13.40;;
20065;SDS011;10193;48.884;9.182;2023-02-15T14:20:22;14.77;;;13.20;;
20065;SDS011;10193;48.884;9.182;2023-02-15T14:22:55;13.85;;;12.35;;
20065;SDS011;10193;48.884;9.182;2023-02-15T14:25:30;14.18;;;12.70;;
20065;SDS011;10193;48.884;9.182;2023-02-15T14:28:05;13.77;;;12.38;;
20065;SDS011;10193;48.884;9.182;2023-02-15T14:30:37;13.60;;;12.20;;
20065;SDS011;10193;48.884;9.182;2023-02-15T14:33:08;13.95;;;12.20;;
20065;SDS011;10193;48.884;9.182;2023-02-15T14:35:41;13.52;;;12.13;;
20065;SDS011;10193;48.884;9.182;2023-02-15T14:38:11;14.07;;;12.68;;
20065;SDS011;10193;48.884;9.182;2023-02-15T14:40:45;13.32;;;11.93;;
20065;SDS011;10193;48.884;9.182;2023-02-15T14:43:44;14.15;;;11.98;;
20065;SDS011;10193;48.884;9.182;2023-02-15T14:46:20;13.23;;;11.88;;
20065;SDS011;10193;48.884;9.182;2023-02-15T14:48:51;13.63;;;12.05;;
20065;SDS011;10193;48.884;9.182;2023-02-15T14:51:53;12.88;;;11.50;;
20065;SDS011;10193;48.884;9.182;2023-02-15T14:57:23;12.98;;;11.73;;
20065;SDS011;10193;48.884;9.182;2023-02-15T14:59:56;13.13;;;11.90;;
20065;SDS011;10193;48.884;9.182;2023-02-15T15:02:25;12.80;;;11.50;;